KOGD/OGD METAR and TAF weather

Enter ICAO airport designator
Station Type Date Time Source
KOGD METAR 2021/06/24 06:53 UTC NOAA

KOGD 240653Z AUTO 19008G17KT 10SM FEW120 29/05 A2998 RMK AO2 SLP078 T02890050 403500217 $


Station Type Date Time Source
KOGD Decoded METAR 2021/06/24 06:53 UTC NOAA

OGDEN-HINCKLEY AIRPORT, UT, United States (KOGD) 41-12N 112-01W 1353M
Jun 24, 2021 - 02:53 AM EDT / 2021.06.24 0653 UTC
Wind: from the S (190 degrees) at 9 MPH (8 KT) gusting to 20 MPH (17 KT):0
Visibility: 10 mile(s):0
Sky conditions: mostly clear
Temperature: 84.0 F (28.9 C)
Dew Point: 41.0 F (5.0 C)
Relative Humidity: 21%
Pressure (altimeter): 29.98 in. Hg (1015 hPa)
ob: KOGD 240653Z AUTO 19008G17KT 10SM FEW120 29/05 A2998 RMK AO2 SLP078 T02890050 403500217
cycle: 7

Station Type Date Time Source
KOGD TAF 2021/06/24 06:42 UTC NOAA

TAF KOGD 240539Z 2406/2506 17009KT P6SM VCSH SCT100
FM241500 18009KT P6SM VCTS BKN070CB OVC100
FM250200 33006KT P6SM FEW070 SCT120
FM250500 22005KT P6SM SCT150

Example: see airport list